Here is the Quick Look data you requested

The Data originates at the National Weather Service, and is made available here by the UAlbany Department of Atmospheric and Environmental Sciences

Surface Observations

KBID 261456Z AUTO 20012KT 3SM BR OVC004 22/21 A3006 RMK AO2 SLP180 60052
 T02170211 58006=
KOQU 261450Z 23012KT 10SM SCT030 BKN110 25/20 A3003=
KPVD 261451Z 21015KT 10SM -RA SCT016 SCT040 BKN100 24/22 A3003 RMK AO2 RAB45
 SLP168 P0000 60003 T02440222 58011=
KSFZ 261456Z AUTO 21008KT 10SM OVC011 23/22 A3003 RMK AO2 CIG 008V014 SLP115
 60000 T02330217 58009=
KUUU 261453Z AUTO 19010KT OVC003 23/23 A3004 RMK AO2 RAE27 SLP170 P0001 60004
 T02280228 58009=
KWST 261453Z AUTO 18007KT 3SM BR OVC004 23/23 A3005 RMK AO2 RAE15 SLP174 P0000
 60048 T02280228 58002=